createdAt,value
2023-04-11T00:00:35.836Z,0.30
2023-04-11T00:01:35.884Z,0.20
2023-04-11T00:02:35.918Z,0.20
2023-04-11T00:03:36.040Z,0.20
2023-04-11T00:04:35.899Z,0.20
2023-04-11T00:05:35.775Z,0.20
2023-04-11T00:06:35.759Z,0.20
2023-04-11T00:07:35.750Z,0.30
2023-04-11T00:08:35.735Z,0.30
2023-04-11T00:09:35.721Z,0.30
2023-04-11T00:10:35.709Z,0.30
2023-04-11T00:11:35.699Z,0.40
2023-04-11T00:12:35.699Z,0.30
2023-04-11T00:13:35.698Z,0.30
2023-04-11T00:14:35.658Z,0.30
2023-04-11T00:15:35.650Z,0.30
2023-04-11T00:16:35.675Z,0.30
2023-04-11T00:17:35.642Z,0.30
2023-04-11T00:18:35.609Z,0.30
2023-04-11T00:19:35.596Z,0.30
2023-04-11T00:20:35.587Z,0.30
2023-04-11T00:21:35.575Z,0.30
2023-04-11T00:22:35.559Z,0.40
2023-04-11T00:23:35.548Z,0.30
2023-04-11T00:24:35.589Z,0.30
2023-04-11T00:25:35.521Z,0.30
2023-04-11T00:26:35.512Z,0.20
2023-04-11T00:27:35.496Z,0.30
2023-04-11T00:28:35.484Z,0.20
2023-04-11T00:29:35.499Z,0.20
2023-04-11T00:30:35.457Z,0.30
2023-04-11T00:31:35.477Z,0.20
2023-04-11T00:32:35.449Z,0.20
2023-04-11T00:33:35.421Z,0.30
2023-04-11T00:34:35.405Z,0.20
2023-04-11T00:35:35.410Z,0.30
2023-04-11T00:36:35.444Z,0.20
2023-04-11T00:37:35.367Z,0.20
2023-04-11T00:38:35.362Z,0.30
2023-04-11T00:39:35.374Z,0.20
2023-04-11T00:40:35.335Z,0.30
2023-04-11T00:41:35.321Z,0.20
2023-04-11T00:42:35.307Z,0.30
2023-04-11T00:43:35.295Z,0.30
2023-04-11T00:44:35.285Z,0.30
2023-04-11T00:45:35.330Z,0.30
2023-04-11T00:46:35.254Z,0.30
2023-04-11T00:47:35.311Z,0.20
2023-04-11T00:48:35.229Z,0.30
2023-04-11T00:49:35.218Z,0.30
2023-04-11T00:50:35.204Z,0.30
2023-04-11T00:51:35.202Z,0.30
2023-04-11T00:52:35.194Z,0.20
2023-04-11T00:53:35.170Z,0.30
2023-04-11T00:54:35.159Z,0.30
2023-04-11T00:55:35.144Z,0.20
2023-04-11T00:56:35.134Z,0.20
2023-04-11T00:57:35.118Z,0.20
2023-04-11T00:58:35.106Z,0.30
2023-04-11T00:59:35.111Z,0.30
2023-04-11T01:00:35.080Z,0.20
2023-04-11T01:01:35.137Z,0.30
2023-04-11T01:02:35.185Z,0.20
2023-04-11T01:03:35.232Z,0.20
2023-04-11T01:04:35.032Z,0.20
2023-04-11T01:05:35.015Z,0.30
2023-04-11T01:06:35.002Z,0.20
2023-04-11T01:07:34.999Z,0.30
2023-04-11T01:08:34.984Z,0.20
2023-04-11T01:09:34.969Z,0.30
2023-04-11T01:10:34.952Z,0.20
2023-04-11T01:11:34.947Z,0.20
2023-04-11T01:12:34.928Z,0.30
2023-04-11T01:13:34.918Z,0.20
2023-04-11T01:14:34.905Z,0.20
2023-04-11T01:15:34.897Z,0.20
2023-04-11T01:16:34.913Z,0.20
2023-04-11T01:17:34.978Z,0.20
2023-04-11T01:18:34.863Z,0.20
2023-04-11T01:19:34.847Z,0.20
2023-04-11T01:20:34.832Z,0.30
2023-04-11T01:21:34.817Z,0.20
2023-04-11T01:22:34.808Z,0.20
2023-04-11T01:23:34.798Z,0.20
2023-04-11T01:24:34.777Z,0.20
2023-04-11T01:25:34.774Z,0.20
2023-04-11T01:26:34.768Z,0.20
2023-04-11T01:27:34.739Z,0.20
2023-04-11T01:28:34.736Z,0.20
2023-04-11T01:29:34.716Z,0.20
2023-04-11T01:30:34.759Z,0.20
2023-04-11T01:31:34.701Z,0.20
2023-04-11T01:32:34.753Z,0.10
2023-04-11T01:33:34.701Z,0.20
2023-04-11T01:34:34.655Z,0.20
2023-04-11T01:35:34.656Z,0.20
2023-04-11T01:36:34.632Z,0.20
2023-04-11T01:37:34.613Z,0.20
2023-04-11T01:39:34.607Z,0.20
2023-04-11T01:40:34.585Z,0.20
2023-04-11T01:41:34.562Z,0.20
2023-04-11T01:42:34.561Z,0.10
2023-04-11T01:43:34.538Z,0.20
2023-04-11T01:44:34.526Z,0.20
2023-04-11T01:45:34.515Z,0.20
2023-04-11T01:46:34.501Z,0.20
2023-04-11T01:47:34.599Z,0.10
2023-04-11T01:48:34.780Z,0.20
2023-04-11T01:49:34.492Z,0.20
2023-04-11T01:50:34.450Z,0.20
2023-04-11T01:51:34.432Z,0.20
2023-04-11T01:52:34.441Z,0.20
2023-04-11T01:53:34.422Z,0.20
2023-04-11T01:54:34.401Z,0.20
2023-04-11T01:55:34.390Z,0.20
2023-04-11T01:56:34.369Z,0.20
2023-04-11T01:57:34.361Z,0.10
2023-04-11T01:58:34.346Z,0.20
2023-04-11T01:59:34.346Z,0.20
2023-04-11T02:00:34.323Z,0.20
2023-04-11T02:01:34.415Z,0.20
2023-04-11T02:02:34.405Z,0.20
2023-04-11T02:03:34.707Z,0.20
2023-04-11T02:04:34.275Z,0.20
2023-04-11T02:05:34.283Z,0.20
2023-04-11T02:06:34.251Z,0.20
2023-04-11T02:07:34.237Z,0.20
2023-04-11T02:08:34.234Z,0.20
2023-04-11T02:09:34.210Z,0.20
2023-04-11T02:10:34.211Z,0.20
2023-04-11T02:11:34.190Z,0.20
2023-04-11T02:12:34.175Z,0.10
2023-04-11T02:13:34.170Z,0.20
2023-04-11T02:14:34.149Z,0.20
2023-04-11T02:15:34.202Z,0.20
2023-04-11T02:16:34.122Z,0.20
2023-04-11T02:17:34.169Z,0.20
2023-04-11T02:18:34.103Z,0.20
2023-04-11T02:19:34.086Z,0.20
2023-04-11T02:20:34.117Z,0.20
2023-04-11T02:21:34.082Z,0.30
2023-04-11T02:22:34.099Z,0.20
2023-04-11T02:23:34.044Z,0.20
2023-04-11T02:24:34.038Z,0.30
2023-04-11T02:25:34.024Z,0.20
2023-04-11T02:26:34.063Z,0.30
2023-04-11T02:27:34.011Z,0.20
2023-04-11T02:28:34.004Z,0.30
2023-04-11T02:29:33.983Z,0.20
2023-04-11T02:30:33.948Z,0.20
2023-04-11T02:31:34.054Z,0.30
2023-04-11T02:32:33.950Z,0.20
2023-04-11T02:33:33.907Z,0.30
2023-04-11T02:34:33.918Z,0.20
2023-04-11T02:35:33.913Z,0.20
2023-04-11T02:36:33.888Z,0.20
2023-04-11T02:37:33.896Z,0.20
2023-04-11T02:38:33.850Z,0.30
2023-04-11T02:39:33.841Z,0.30
2023-04-11T02:40:33.853Z,0.20
2023-04-11T02:41:33.809Z,0.30
2023-04-11T02:42:33.806Z,0.20
2023-04-11T02:43:33.780Z,0.20
2023-04-11T02:44:33.797Z,0.30
2023-04-11T02:45:33.756Z,0.20
2023-04-11T02:46:33.794Z,0.30
2023-04-11T02:47:33.769Z,0.20
2023-04-11T02:48:33.723Z,0.20
2023-04-11T02:49:33.716Z,0.20
2023-04-11T02:50:33.702Z,0.20
2023-04-11T02:51:33.680Z,0.20
2023-04-11T02:52:33.777Z,0.10
2023-04-11T02:53:33.688Z,0.20
2023-04-11T02:54:33.684Z,0.20
2023-04-11T02:55:33.640Z,0.10
2023-04-11T02:56:33.630Z,0.20
2023-04-11T02:57:33.613Z,0.10
2023-04-11T02:58:33.605Z,0.20
2023-04-11T02:59:33.650Z,0.20
2023-04-11T03:00:33.576Z,0.20
2023-04-11T03:01:33.651Z,0.30
2023-04-11T03:02:33.733Z,0.20
2023-04-11T03:03:33.684Z,0.20
2023-04-11T03:04:33.663Z,0.30
2023-04-11T03:05:33.507Z,0.20
2023-04-11T03:06:33.510Z,0.20
2023-04-11T03:07:33.480Z,0.20
2023-04-11T03:08:33.476Z,0.20
2023-04-11T03:09:33.497Z,0.20
2023-04-11T03:10:33.444Z,0.20
2023-04-11T03:11:33.463Z,0.30
2023-04-11T03:12:33.432Z,0.20
2023-04-11T03:13:33.412Z,0.20
2023-04-11T03:14:33.407Z,0.30
2023-04-11T03:15:33.398Z,0.20
2023-04-11T03:16:33.492Z,0.20
2023-04-11T03:17:33.387Z,0.20
2023-04-11T03:18:33.355Z,0.20
2023-04-11T03:19:33.340Z,0.20
2023-04-11T03:20:33.322Z,0.20
2023-04-11T03:21:33.313Z,0.20
2023-04-11T03:22:33.301Z,0.20
2023-04-11T03:23:33.290Z,0.20
2023-04-11T03:24:33.281Z,0.20
2023-04-11T03:25:33.285Z,0.20
2023-04-11T03:26:33.246Z,0.30
2023-04-11T03:27:33.239Z,0.20
2023-04-11T03:28:33.221Z,0.20
2023-04-11T03:29:33.213Z,0.20
2023-04-11T03:30:33.197Z,0.20
2023-04-11T03:31:33.233Z,0.20
2023-04-11T03:32:33.206Z,0.20
2023-04-11T03:33:33.170Z,0.20
2023-04-11T03:34:33.156Z,0.20
2023-04-11T03:35:33.140Z,0.20
2023-04-11T03:36:33.128Z,0.20
2023-04-11T03:37:33.109Z,0.20
2023-04-11T03:38:33.100Z,0.20
2023-04-11T03:39:33.092Z,0.20
2023-04-11T03:40:33.074Z,0.20
2023-04-11T03:41:33.097Z,0.30
2023-04-11T03:42:33.064Z,0.20
2023-04-11T03:43:33.033Z,0.20
2023-04-11T03:44:33.021Z,0.30
2023-04-11T03:45:33.009Z,0.20
2023-04-11T03:46:33.019Z,0.20
2023-04-11T03:47:33.015Z,0.20
2023-04-11T03:48:32.973Z,0.20
2023-04-11T03:49:32.961Z,0.20
2023-04-11T03:50:32.944Z,0.20
2023-04-11T03:51:32.931Z,0.30
2023-04-11T03:52:32.919Z,0.20
2023-04-11T03:53:32.907Z,0.20
2023-04-11T03:54:32.900Z,0.20
2023-04-11T03:55:32.881Z,0.20
2023-04-11T03:56:32.881Z,0.20
2023-04-11T03:57:32.880Z,0.20
2023-04-11T03:58:32.854Z,0.20
2023-04-11T03:59:32.826Z,0.30
2023-04-11T04:00:32.814Z,0.20
2023-04-11T04:01:32.821Z,0.30
2023-04-11T04:02:32.967Z,0.20
2023-04-11T04:03:33.057Z,0.20
2023-04-11T04:04:32.873Z,0.30
2023-04-11T04:05:32.751Z,0.20
2023-04-11T04:06:32.762Z,0.30
2023-04-11T04:07:32.734Z,0.20
2023-04-11T04:08:32.713Z,0.20
2023-04-11T04:09:32.698Z,0.30
2023-04-11T04:10:32.691Z,0.20
2023-04-11T04:11:32.677Z,0.30
2023-04-11T04:12:32.672Z,0.20
2023-04-11T04:13:32.671Z,0.30
2023-04-11T04:14:32.635Z,0.30
2023-04-11T04:15:32.666Z,0.30
2023-04-11T04:16:32.663Z,0.30
2023-04-11T04:17:32.672Z,0.30
2023-04-11T04:18:32.620Z,0.30
2023-04-11T04:19:32.621Z,0.20
2023-04-11T04:20:32.575Z,0.20
2023-04-11T04:21:32.813Z,0.30
2023-04-11T04:22:32.544Z,0.30
2023-04-11T04:23:32.607Z,0.20
2023-04-11T04:24:32.523Z,0.20
2023-04-11T04:25:32.514Z,0.30
2023-04-11T04:26:32.530Z,0.30
2023-04-11T04:27:32.506Z,0.20
2023-04-11T04:28:32.477Z,0.30
2023-04-11T04:29:32.496Z,0.20
2023-04-11T04:30:32.435Z,0.20
2023-04-11T04:31:32.481Z,0.30
2023-04-11T04:32:32.433Z,0.20
2023-04-11T04:33:32.406Z,0.30
2023-04-11T04:34:32.388Z,0.30
2023-04-11T04:35:32.411Z,0.30
2023-04-11T04:36:32.357Z,0.30
2023-04-11T04:37:32.353Z,0.30
2023-04-11T04:38:32.347Z,0.30
2023-04-11T04:39:32.326Z,0.30
2023-04-11T04:40:32.310Z,0.30
2023-04-11T04:41:32.298Z,0.20
2023-04-11T04:42:32.287Z,75.40
2023-04-11T04:43:32.363Z,0.90
2023-04-11T04:44:32.267Z,1.10
2023-04-11T04:45:32.301Z,1.00
2023-04-11T04:46:32.236Z,0.90
2023-04-11T04:47:32.254Z,0.90
2023-04-11T04:48:32.213Z,0.80
2023-04-11T04:49:32.199Z,1.00
2023-04-11T04:50:32.184Z,0.90
2023-04-11T04:51:32.174Z,0.90
2023-04-11T04:52:32.160Z,1.00
2023-04-11T04:53:32.145Z,91.30
2023-04-11T04:54:32.145Z,0.90
2023-04-11T04:55:32.119Z,0.80
2023-04-11T04:56:32.107Z,0.90
2023-04-11T04:57:32.190Z,0.90
2023-04-11T04:58:32.082Z,0.90
2023-04-11T04:59:32.073Z,1.10
2023-04-11T05:00:32.057Z,0.80
2023-04-11T05:01:32.124Z,0.90
2023-04-11T05:02:32.154Z,0.70
2023-04-11T05:03:32.105Z,9.80
2023-04-11T05:04:32.159Z,100.09
2023-04-11T05:05:31.992Z,96.40
2023-04-11T05:06:32.002Z,96.40
2023-04-11T05:07:31.970Z,91.40
2023-04-11T05:08:31.954Z,97.30
2023-04-11T05:09:31.947Z,93.80
2023-04-11T05:10:31.943Z,95.50
2023-04-11T05:11:31.922Z,93.59
2023-04-11T05:12:31.904Z,92.40
2023-04-11T05:13:31.896Z,90.00
2023-04-11T05:14:31.876Z,90.09
2023-04-11T05:15:31.869Z,90.50
2023-04-11T05:16:31.889Z,88.19
2023-04-11T05:17:31.880Z,94.19
2023-04-11T05:18:31.828Z,90.40
2023-04-11T05:19:31.815Z,91.59
2023-04-11T05:20:31.806Z,92.80
2023-04-11T05:21:31.794Z,91.09
2023-04-11T05:22:31.778Z,91.69
2023-04-11T05:23:31.788Z,94.59
2023-04-11T05:24:31.751Z,90.59
2023-04-11T05:25:31.738Z,91.80
2023-04-11T05:26:31.725Z,89.09
2023-04-11T05:27:31.729Z,82.59
2023-04-11T05:28:31.701Z,81.40
2023-04-11T05:29:31.690Z,76.19
2023-04-11T05:30:31.711Z,79.19
2023-04-11T05:31:31.687Z,77.09
2023-04-11T05:32:31.701Z,78.90
2023-04-11T05:33:31.671Z,83.19
2023-04-11T05:34:31.628Z,82.40
2023-04-11T05:35:31.670Z,81.30
2023-04-11T05:36:31.609Z,77.59
2023-04-11T05:37:31.593Z,70.50
2023-04-11T05:38:31.579Z,70.80
2023-04-11T05:40:31.558Z,70.59
2023-04-11T05:41:31.547Z,70.09
2023-04-11T05:42:31.536Z,70.30
2023-04-11T05:43:31.522Z,72.30
2023-04-11T05:44:31.507Z,67.40
2023-04-11T05:45:31.491Z,68.19
2023-04-11T05:46:31.586Z,66.90
2023-04-11T05:47:31.536Z,65.69
2023-04-11T05:48:31.462Z,66.50
2023-04-11T05:49:31.472Z,67.00
2023-04-11T05:50:31.440Z,69.50
2023-04-11T05:51:31.420Z,71.19
2023-04-11T05:52:31.410Z,81.69
2023-04-11T05:53:31.390Z,81.30
2023-04-11T05:54:31.378Z,67.50
2023-04-11T05:55:31.361Z,66.09
2023-04-11T05:56:31.354Z,74.19
2023-04-11T05:57:31.336Z,98.30
2023-04-11T05:58:31.320Z,148.60
2023-04-11T05:59:31.307Z,148.80
2023-04-11T06:00:31.330Z,148.19
2023-04-11T06:01:31.282Z,138.00
2023-04-11T06:02:31.404Z,149.39
2023-04-11T06:03:31.349Z,140.39
2023-04-11T06:04:31.365Z,137.60
2023-04-11T06:05:31.285Z,122.19
2023-04-11T06:06:31.216Z,99.59
2023-04-11T06:07:31.201Z,88.19
2023-04-11T06:08:31.191Z,79.09
2023-04-11T06:09:33.460Z,70.19
2023-04-11T06:10:31.179Z,67.19
2023-04-11T06:11:31.149Z,64.30
2023-04-11T06:12:31.145Z,63.40
2023-04-11T06:13:31.147Z,61.90
2023-04-11T06:14:31.113Z,62.79
2023-04-11T06:15:31.127Z,61.59
2023-04-11T06:16:31.170Z,69.90
2023-04-11T06:17:31.131Z,75.00
2023-04-11T06:18:31.060Z,75.40
2023-04-11T06:19:31.051Z,91.00
2023-04-11T06:20:31.036Z,106.69
2023-04-11T06:21:31.044Z,109.09
2023-04-11T06:22:31.006Z,101.50
2023-04-11T06:23:30.994Z,105.09
2023-04-11T06:24:30.980Z,103.69
2023-04-11T06:25:30.985Z,101.19
2023-04-11T06:26:30.957Z,125.50
2023-04-11T06:27:30.943Z,104.80
2023-04-11T06:28:30.927Z,85.69
2023-04-11T06:29:30.920Z,89.59
2023-04-11T06:30:30.902Z,93.30
2023-04-11T06:31:30.922Z,106.50
2023-04-11T06:32:30.912Z,114.69
2023-04-11T06:33:30.874Z,113.50
2023-04-11T06:34:30.853Z,105.80
2023-04-11T06:35:30.908Z,96.90
2023-04-11T06:36:30.829Z,105.69
2023-04-11T06:37:30.838Z,122.59
2023-04-11T06:38:30.802Z,115.69
2023-04-11T06:39:30.787Z,113.00
2023-04-11T06:40:30.775Z,115.50
2023-04-11T06:41:30.762Z,106.30
2023-04-11T06:42:30.749Z,110.40
2023-04-11T06:43:30.738Z,108.80
2023-04-11T06:44:30.759Z,105.00
2023-04-11T06:45:30.712Z,99.69
2023-04-11T06:46:30.776Z,104.40
2023-04-11T06:47:30.693Z,106.69
2023-04-11T06:48:30.672Z,113.80
2023-04-11T06:49:30.661Z,107.09
2023-04-11T06:50:30.655Z,102.50
2023-04-11T06:51:30.634Z,103.50
2023-04-11T06:52:30.622Z,109.80
2023-04-11T06:53:30.641Z,101.90
2023-04-11T06:54:30.594Z,99.50
2023-04-11T06:55:30.582Z,96.40
2023-04-11T06:56:30.583Z,95.80
2023-04-11T06:57:30.569Z,98.19
2023-04-11T06:58:30.553Z,100.90
2023-04-11T06:59:30.540Z,96.40
2023-04-11T07:00:30.527Z,98.09
2023-04-11T07:01:30.660Z,93.69
2023-04-11T07:02:30.664Z,87.40
2023-04-11T07:03:30.730Z,85.09
2023-04-11T07:04:30.647Z,80.50
2023-04-11T07:05:30.468Z,82.09
2023-04-11T07:06:30.472Z,69.90
2023-04-11T07:07:30.434Z,67.00
2023-04-11T07:08:30.428Z,72.80
2023-04-11T07:09:30.430Z,67.40
2023-04-11T07:10:30.402Z,70.90
2023-04-11T07:11:30.377Z,72.90
2023-04-11T07:12:30.366Z,69.80
2023-04-11T07:13:30.348Z,68.30
2023-04-11T07:14:30.369Z,68.19
2023-04-11T07:15:30.323Z,71.80
2023-04-11T07:16:30.351Z,69.50
2023-04-11T07:17:30.328Z,73.59
2023-04-11T07:18:30.280Z,75.59
2023-04-11T07:19:30.271Z,69.59
2023-04-11T07:20:30.264Z,71.00
2023-04-11T07:21:30.274Z,63.90
2023-04-11T07:22:30.252Z,64.59
2023-04-11T07:23:30.222Z,65.80
2023-04-11T07:24:30.202Z,67.90
2023-04-11T07:25:30.865Z,66.50
2023-04-11T07:26:30.178Z,76.40
2023-04-11T07:27:30.164Z,70.69
2023-04-11T07:28:30.167Z,74.09
2023-04-11T07:29:30.143Z,65.09
2023-04-11T07:30:30.130Z,65.19
2023-04-11T07:31:30.150Z,66.40
2023-04-11T07:32:30.130Z,63.20
2023-04-11T07:33:30.089Z,53.20
2023-04-11T07:34:30.076Z,51.79
2023-04-11T07:35:30.070Z,66.90
2023-04-11T07:36:30.045Z,58.59
2023-04-11T07:37:30.036Z,61.40
2023-04-11T07:38:30.036Z,64.30
2023-04-11T07:39:30.018Z,65.00
2023-04-11T07:40:29.999Z,73.50
2023-04-11T07:41:30.029Z,68.80
2023-04-11T07:42:29.968Z,71.00
2023-04-11T07:43:29.982Z,78.69
2023-04-11T07:44:29.943Z,80.80
2023-04-11T07:45:29.970Z,80.80
2023-04-11T07:46:29.924Z,83.19
2023-04-11T07:47:29.936Z,76.19
2023-04-11T07:48:29.898Z,80.59
2023-04-11T07:49:29.891Z,67.30
2023-04-11T07:50:29.877Z,73.30
2023-04-11T07:51:29.852Z,71.40
2023-04-11T07:52:29.835Z,72.30
2023-04-11T07:53:29.825Z,67.59
2023-04-11T07:54:29.811Z,65.00
2023-04-11T07:55:29.798Z,63.40
2023-04-11T07:56:29.794Z,72.40
2023-04-11T07:57:29.793Z,73.50
2023-04-11T07:58:29.758Z,74.50
2023-04-11T07:59:29.749Z,74.40
2023-04-11T08:00:29.741Z,74.30
2023-04-11T08:01:29.738Z,76.30
2023-04-11T08:02:29.959Z,88.40
2023-04-11T08:03:30.021Z,84.00
2023-04-11T08:04:29.964Z,82.09
2023-04-11T08:05:29.722Z,69.00
2023-04-11T08:06:29.661Z,67.30
2023-04-11T08:07:29.662Z,76.90
2023-04-11T08:08:29.625Z,81.00
2023-04-11T08:09:29.617Z,72.19
2023-04-11T08:10:29.609Z,57.00
2023-04-11T08:11:29.598Z,66.69
2023-04-11T08:12:29.574Z,73.59
2023-04-11T08:13:29.599Z,82.50
2023-04-11T08:14:29.555Z,86.50
2023-04-11T08:15:29.545Z,71.40
2023-04-11T08:16:29.600Z,67.50
2023-04-11T08:17:29.634Z,71.50
2023-04-11T08:18:29.498Z,67.19
2023-04-11T08:19:29.489Z,63.90
2023-04-11T08:20:29.478Z,65.69
2023-04-11T08:21:29.462Z,66.19
2023-04-11T08:22:29.452Z,72.80
2023-04-11T08:23:29.435Z,74.40
2023-04-11T08:24:29.431Z,74.00
2023-04-11T08:25:29.414Z,78.90
2023-04-11T08:26:29.396Z,81.00
2023-04-11T08:27:29.386Z,84.40
2023-04-11T08:28:29.367Z,72.69
2023-04-11T08:29:29.380Z,67.59
2023-04-11T08:30:29.397Z,65.09
2023-04-11T08:31:29.326Z,66.30
2023-04-11T08:32:29.333Z,69.69
2023-04-11T08:33:29.307Z,58.00
2023-04-11T08:34:29.292Z,73.50
2023-04-11T08:35:29.280Z,65.90
2023-04-11T08:36:29.265Z,68.19
2023-04-11T08:37:29.251Z,71.30
2023-04-11T08:38:29.235Z,50.90
2023-04-11T08:39:29.232Z,57.20
2023-04-11T08:40:29.215Z,55.59
2023-04-11T08:41:29.197Z,55.29
2023-04-11T08:42:29.183Z,55.70
2023-04-11T08:44:29.159Z,70.09
2023-04-11T08:45:29.171Z,68.80
2023-04-11T08:46:29.189Z,61.59
2023-04-11T08:47:29.132Z,54.59
2023-04-11T08:48:29.107Z,54.20
2023-04-11T08:49:29.093Z,52.00
2023-04-11T08:50:29.080Z,54.50
2023-04-11T08:51:29.067Z,52.90
2023-04-11T08:52:29.050Z,50.59
2023-04-11T08:53:29.039Z,54.00
2023-04-11T08:54:29.030Z,52.59
2023-04-11T08:55:29.014Z,67.59
2023-04-11T08:56:29.001Z,53.90
2023-04-11T08:57:28.989Z,54.79
2023-04-11T08:58:28.983Z,56.00
2023-04-11T08:59:28.962Z,53.29
2023-04-11T09:00:28.964Z,53.59
2023-04-11T09:01:29.053Z,56.90
2023-04-11T09:02:28.972Z,51.59
2023-04-11T09:03:28.939Z,51.00
2023-04-11T09:04:28.920Z,52.50
2023-04-11T09:05:28.891Z,54.00
2023-04-11T09:06:28.870Z,54.20
2023-04-11T09:07:28.856Z,61.59
2023-04-11T09:08:28.853Z,53.20
2023-04-11T09:09:28.842Z,62.00
2023-04-11T09:10:28.828Z,63.70
2023-04-11T09:11:28.812Z,55.59
2023-04-11T09:12:29.517Z,53.50
2023-04-11T09:13:28.790Z,77.00
2023-04-11T09:14:28.784Z,75.30
2023-04-11T09:15:28.826Z,53.50
2023-04-11T09:16:28.957Z,68.00
2023-04-11T09:17:28.785Z,55.00
2023-04-11T09:18:28.721Z,56.79
2023-04-11T09:19:28.722Z,52.79
2023-04-11T09:20:28.692Z,52.90
2023-04-11T09:21:28.685Z,56.70
2023-04-11T09:22:28.669Z,55.40
2023-04-11T09:23:28.656Z,57.50
2023-04-11T09:24:28.642Z,55.09
2023-04-11T09:25:28.647Z,55.09
2023-04-11T09:26:28.617Z,53.50
2023-04-11T09:27:28.604Z,55.79
2023-04-11T09:28:28.591Z,71.90
2023-04-11T09:29:28.579Z,50.79
2023-04-11T09:30:28.591Z,55.59
2023-04-11T09:31:28.641Z,48.90
2023-04-11T09:32:29.182Z,54.00
2023-04-11T09:33:28.700Z,54.50
2023-04-11T09:34:28.521Z,52.00
2023-04-11T09:35:28.512Z,50.00
2023-04-11T09:36:28.520Z,49.09
2023-04-11T09:37:28.479Z,52.50
2023-04-11T09:38:28.479Z,52.00
2023-04-11T09:39:28.460Z,49.90
2023-04-11T09:40:28.446Z,48.79
2023-04-11T09:41:28.434Z,49.29
2023-04-11T09:42:28.419Z,46.40
2023-04-11T09:43:28.408Z,48.40
2023-04-11T09:44:28.395Z,56.00
2023-04-11T09:45:28.394Z,51.50
2023-04-11T09:46:28.427Z,62.29
2023-04-11T09:47:28.392Z,66.09
2023-04-11T09:48:43.339Z,53.70
2023-04-11T09:49:28.353Z,59.50
2023-04-11T09:50:28.331Z,43.59
2023-04-11T09:52:29.295Z,46.79
2023-04-11T09:53:28.286Z,47.79
2023-04-11T09:53:40.494Z,43.90
2023-04-11T09:54:28.274Z,49.20
2023-04-11T09:55:28.253Z,50.00
2023-04-11T09:56:28.240Z,49.59
2023-04-11T09:57:28.232Z,49.40
2023-04-11T09:58:29.665Z,47.59
2023-04-11T09:59:28.205Z,50.29
2023-04-11T10:00:28.190Z,50.40
2023-04-11T10:01:28.304Z,45.79
2023-04-11T10:02:28.287Z,46.40
2023-04-11T10:03:28.210Z,47.00
2023-04-11T10:04:28.275Z,49.29
2023-04-11T10:06:28.115Z,48.29
2023-04-11T10:07:28.104Z,47.00
2023-04-11T10:08:28.088Z,49.00
2023-04-11T10:09:28.077Z,48.50
2023-04-11T10:10:28.068Z,50.79
2023-04-11T10:11:28.052Z,52.40
2023-04-11T10:12:28.037Z,52.09
2023-04-11T10:13:28.036Z,50.79
2023-04-11T10:14:28.013Z,50.79
2023-04-11T10:15:28.017Z,49.40
2023-04-11T10:16:28.000Z,49.20
2023-04-11T10:17:27.988Z,49.90
2023-04-11T10:18:27.973Z,48.29
2023-04-11T10:19:27.952Z,47.40
2023-04-11T10:20:27.937Z,50.70
2023-04-11T10:21:27.984Z,48.50
2023-04-11T10:22:27.912Z,45.79
2023-04-11T10:23:27.901Z,43.59
2023-04-11T10:24:27.888Z,44.29
2023-04-11T10:25:27.879Z,47.29
2023-04-11T10:26:27.863Z,44.59
2023-04-11T10:27:27.854Z,38.20
2023-04-11T10:28:27.847Z,42.50
2023-04-11T10:29:27.827Z,46.79
2023-04-11T10:30:27.831Z,52.00
2023-04-11T10:31:27.844Z,56.50
2023-04-11T10:32:27.856Z,56.79
2023-04-11T10:33:27.776Z,29.20
2023-04-11T10:34:27.763Z,25.60
2023-04-11T10:35:27.755Z,31.70
2023-04-11T10:36:27.738Z,31.39
2023-04-11T10:37:27.748Z,23.89
2023-04-11T10:38:27.713Z,25.70
2023-04-11T10:39:27.700Z,28.89
2023-04-11T10:40:27.702Z,31.50
2023-04-11T10:41:27.720Z,33.29
2023-04-11T10:42:27.666Z,36.09
2023-04-11T10:43:27.648Z,34.90
2023-04-11T10:44:27.698Z,29.29
2023-04-11T10:45:27.623Z,37.00
2023-04-11T10:46:27.622Z,34.59
2023-04-11T10:47:27.621Z,48.00
2023-04-11T10:48:27.585Z,45.79
2023-04-11T10:49:27.570Z,46.79
2023-04-11T10:50:27.572Z,50.20
2023-04-11T10:51:27.563Z,53.20
2023-04-11T10:52:27.540Z,58.09
2023-04-11T10:53:27.579Z,43.90
2023-04-11T10:54:27.510Z,39.20
2023-04-11T10:55:27.502Z,36.20
2023-04-11T10:56:27.482Z,35.00
2023-04-11T10:57:27.476Z,49.79
2023-04-11T10:58:27.458Z,33.00
2023-04-11T10:59:27.444Z,38.79
2023-04-11T11:00:27.432Z,40.09
2023-04-11T11:01:32.302Z,46.79
2023-04-11T11:02:29.600Z,54.70
2023-04-11T11:03:27.565Z,58.90
2023-04-11T11:04:27.484Z,55.79
2023-04-11T11:05:27.363Z,60.40
2023-04-11T11:06:27.350Z,50.90
2023-04-11T11:07:27.338Z,50.90
2023-04-11T11:08:27.326Z,58.20
2023-04-11T11:09:27.341Z,66.30
2023-04-11T11:10:27.300Z,64.59
2023-04-11T11:11:27.285Z,53.50
2023-04-11T11:12:27.289Z,53.00
2023-04-11T11:13:27.261Z,53.59
2023-04-11T11:14:27.247Z,55.40
2023-04-11T11:15:27.236Z,52.90
2023-04-11T11:16:27.232Z,49.20
2023-04-11T11:17:27.266Z,57.00
2023-04-11T11:18:27.198Z,53.29
2023-04-11T11:19:27.198Z,56.40
2023-04-11T11:20:27.169Z,54.40
2023-04-11T11:21:28.170Z,56.09
2023-04-11T11:22:27.144Z,54.90
2023-04-11T11:23:27.133Z,56.00
2023-04-11T11:24:27.122Z,55.79
2023-04-11T11:25:27.150Z,50.20
2023-04-11T11:26:27.097Z,55.70
2023-04-11T11:27:27.078Z,53.79
2023-04-11T11:29:27.066Z,57.20
2023-04-11T11:30:27.048Z,55.40
2023-04-11T11:31:27.050Z,56.00
2023-04-11T11:32:27.050Z,54.40
2023-04-11T11:33:27.007Z,52.90
2023-04-11T11:34:26.995Z,51.79
2023-04-11T11:35:26.986Z,54.79
2023-04-11T11:36:26.976Z,53.59
2023-04-11T11:37:26.964Z,55.20
2023-04-11T11:38:26.949Z,52.70
2023-04-11T11:39:26.933Z,54.40
2023-04-11T11:40:26.927Z,52.79
2023-04-11T11:41:26.937Z,53.59
2023-04-11T11:42:26.900Z,54.50
2023-04-11T11:43:26.885Z,54.70
2023-04-11T11:44:26.892Z,51.59
2023-04-11T11:45:26.963Z,53.20
2023-04-11T11:46:26.900Z,51.40
2023-04-11T11:47:26.886Z,55.20
2023-04-11T11:48:26.840Z,52.09
2023-04-11T11:49:26.821Z,53.50
2023-04-11T11:50:26.805Z,52.59
2023-04-11T11:51:26.789Z,51.79
2023-04-11T11:52:26.784Z,49.90
2023-04-11T11:53:26.780Z,51.70
2023-04-11T11:54:26.759Z,52.59
2023-04-11T11:55:26.754Z,48.00
2023-04-11T11:56:26.734Z,49.40
2023-04-11T11:57:26.740Z,44.79
2023-04-11T11:58:26.711Z,49.00
2023-04-11T11:59:26.696Z,49.09
2023-04-11T12:00:26.692Z,47.29
2023-04-11T12:01:26.684Z,43.09
2023-04-11T12:02:26.896Z,43.20
2023-04-11T12:03:26.733Z,50.90
2023-04-11T12:04:26.779Z,42.59
2023-04-11T12:05:26.692Z,50.20
2023-04-11T12:06:26.607Z,50.00
2023-04-11T12:07:26.592Z,45.40
2023-04-11T12:08:26.580Z,40.90
2023-04-11T12:09:26.571Z,46.20
2023-04-11T12:10:26.562Z,46.59
2023-04-11T12:11:26.544Z,48.50
2023-04-11T12:12:26.533Z,49.20
2023-04-11T12:13:26.550Z,49.90
2023-04-11T12:14:26.506Z,50.79
2023-04-11T12:15:26.497Z,47.09
2023-04-11T12:16:26.534Z,48.00
2023-04-11T12:17:26.510Z,49.09
2023-04-11T12:18:26.509Z,40.50
2023-04-11T12:19:26.441Z,44.09
2023-04-11T12:20:26.482Z,47.00
2023-04-11T12:21:26.415Z,44.40
2023-04-11T12:22:26.405Z,46.20
2023-04-11T12:23:26.408Z,45.79
2023-04-11T12:24:26.379Z,44.90
2023-04-11T12:25:26.373Z,35.29
2023-04-11T12:26:26.354Z,34.29
2023-04-11T12:27:26.356Z,39.00
2023-04-11T12:28:26.344Z,38.00
2023-04-11T12:29:26.533Z,36.79
2023-04-11T12:30:27.621Z,32.40
2023-04-11T12:31:26.311Z,43.79
2023-04-11T12:32:26.320Z,41.20
2023-04-11T12:33:26.266Z,38.50
2023-04-11T12:34:26.254Z,42.50
2023-04-11T12:35:26.240Z,37.70
2023-04-11T12:36:26.283Z,39.70
2023-04-11T12:37:26.222Z,38.40
2023-04-11T12:38:26.202Z,35.70
2023-04-11T12:39:26.188Z,34.79
2023-04-11T12:40:26.177Z,40.79
2023-04-11T12:42:27.358Z,34.70
2023-04-11T12:43:26.134Z,37.59
2023-04-11T12:44:26.120Z,30.70
2023-04-11T12:45:26.260Z,35.70
2023-04-11T12:46:26.118Z,40.59
2023-04-11T12:47:26.151Z,36.70
2023-04-11T12:48:26.072Z,50.79
2023-04-11T12:49:26.070Z,53.20
2023-04-11T12:50:26.045Z,50.90
2023-04-11T12:51:26.033Z,43.40
2023-04-11T12:52:26.024Z,47.00
2023-04-11T12:53:26.016Z,46.79
2023-04-11T12:54:25.993Z,45.79
2023-04-11T12:55:26.071Z,44.50
2023-04-11T12:56:25.969Z,46.40
2023-04-11T12:57:25.961Z,47.29
2023-04-11T12:58:25.945Z,51.29
2023-04-11T12:59:25.930Z,35.00
2023-04-11T13:00:25.923Z,42.29
2023-04-11T13:01:25.974Z,45.70
2023-04-11T13:02:26.026Z,53.50
2023-04-11T13:03:26.154Z,46.79
2023-04-11T13:04:26.140Z,46.70
2023-04-11T13:05:25.857Z,45.59
2023-04-11T13:06:25.847Z,38.70
2023-04-11T13:07:25.837Z,43.70